Time;durP1;ratioP1;P1;durP2;ratioP2;P2;SDS_P1;SDS_P2;PMS_P1;PMS_P2;Temp;Humidity;BMP_temperature;BMP_pressure;BME280_temperature;BME280_humidity;BME280_pressure;Samples;Min_cycle;Max_cycle;Signal;HPM_P1;HPM_P2
2023/08/29 00:01:19;;;;;;;15.43;10.82;;;;;;;11.24;100.00;93326.00;5088767;28;20036;-60
2023/08/29 00:03:46;;;;;;;15.38;9.63;;;;;;;11.51;100.00;93331.16;5076220;28;20049;-60
2023/08/29 00:06:13;;;;;;;16.05;11.40;;;;;;;11.22;100.00;93322.16;5088481;28;20044;-60
2023/08/29 00:08:39;;;;;;;16.37;10.57;;;;;;;11.24;100.00;93319.75;5089605;28;20036;-61
2023/08/29 00:11:06;;;;;;;18.13;11.15;;;;;;;11.25;100.00;93324.03;5078036;28;20413;-60
2023/08/29 00:13:33;;;;;;;17.48;10.82;;;;;;;11.23;100.00;93327.22;5086110;28;20042;-59
2023/08/29 00:16:00;;;;;;;17.25;11.57;;;;;;;11.11;100.00;93331.47;5084927;28;20040;-59
2023/08/29 00:18:27;;;;;;;15.98;10.80;;;;;;;10.91;100.00;93334.34;5061830;28;20036;-61
2023/08/29 00:20:54;;;;;;;21.87;14.30;;;;;;;10.44;100.00;93339.44;5089011;28;20036;-60
2023/08/29 00:23:22;;;;;;;24.67;14.10;;;;;;;10.44;100.00;93345.69;5088332;28;20048;-59
2023/08/29 00:25:50;;;;;;;22.83;14.70;;;;;;;10.76;100.00;93344.13;5080901;28;20044;-61
2023/08/29 00:28:17;;;;;;;20.10;13.05;;;;;;;10.75;100.00;93343.34;5083574;28;20054;-60
2023/08/29 00:30:43;;;;;;;17.90;11.90;;;;;;;10.91;100.00;93341.81;5088889;28;20048;-60
2023/08/29 00:33:11;;;;;;;17.43;12.17;;;;;;;11.03;100.00;93337.56;5088684;28;20049;-60
2023/08/29 00:35:39;;;;;;;17.92;11.80;;;;;;;11.00;100.00;93341.94;5088740;28;20051;-60
2023/08/29 00:38:05;;;;;;;19.63;12.77;;;;;;;10.96;100.00;93347.53;5088502;28;20054;-60
2023/08/29 00:40:33;;;;;;;19.50;12.07;;;;;;;10.97;100.00;93345.56;5087702;28;20824;-60
2023/08/29 00:43:02;;;;;;;19.17;11.50;;;;;;;10.98;100.00;93341.59;5087587;28;20520;-60
2023/08/29 00:45:32;;;;;;;17.63;11.17;;;;;;;11.06;100.00;93342.97;5050700;28;20048;-61
2023/08/29 00:48:00;;;;;;;20.10;12.38;;;;;;;11.06;100.00;93340.22;5075988;28;20125;-61
2023/08/29 00:50:28;;;;;;;18.15;11.73;;;;;;;11.14;100.00;93344.31;5056315;28;20041;-60
2023/08/29 00:53:00;;;;;;;19.73;12.10;;;;;;;11.05;100.00;93337.91;5082146;28;20307;-61
2023/08/29 00:55:28;;;;;;;17.55;11.75;;;;;;;11.03;100.00;93335.59;5081816;28;20046;-60
2023/08/29 00:57:59;;;;;;;18.47;11.27;;;;;;;11.16;100.00;93338.38;5088632;28;20048;-60
2023/08/29 01:00:28;;;;;;;16.75;11.10;;;;;;;11.19;100.00;93340.28;5088599;28;20044;-60
2023/08/29 01:02:55;;;;;;;16.90;11.70;;;;;;;11.08;100.00;93346.03;5088494;28;20048;-60
2023/08/29 01:05:22;;;;;;;15.52;10.82;;;;;;;11.12;100.00;93354.19;5088198;28;20404;-60
2023/08/29 01:07:57;;;;;;;15.93;10.98;;;;;;;11.11;100.00;93345.19;5088730;28;20540;-60
2023/08/29 01:10:56;;;;;;;15.43;10.23;;;;;;;11.10;100.00;93356.59;5075099;28;20051;-61
2023/08/29 01:13:33;;;;;;;16.25;10.27;;;;;;;11.14;100.00;93352.53;5079366;28;20050;-60
2023/08/29 01:16:05;;;;;;;15.38;10.27;;;;;;;10.96;100.00;93344.78;5084224;28;20044;-60
2023/08/29 01:18:34;;;;;;;15.63;10.73;;;;;;;10.93;100.00;93348.41;5079582;28;20743;-60
2023/08/29 01:21:10;;;;;;;16.23;10.55;;;;;;;11.03;100.00;93359.53;5086083;28;20990;-60
2023/08/29 01:23:46;;;;;;;15.63;10.70;;;;;;;10.99;100.00;93360.41;5085316;28;20161;-60
2023/08/29 01:26:16;;;;;;;16.08;10.65;;;;;;;10.98;100.00;93353.34;5066072;28;20051;-60
2023/08/29 01:28:45;;;;;;;16.13;10.73;;;;;;;10.93;100.00;93355.88;5087593;28;20036;-60
2023/08/29 01:31:12;;;;;;;15.10;10.20;;;;;;;10.99;100.00;93341.19;5091899;28;20524;-60
2023/08/29 01:33:40;;;;;;;114.65;41.10;;;;;;;11.10;100.00;93335.38;5092019;28;20435;-60
2023/08/29 01:36:07;;;;;;;19.00;11.43;;;;;;;10.87;100.00;93341.13;5091690;28;20051;-60
2023/08/29 01:38:34;;;;;;;19.33;12.10;;;;;;;10.72;100.00;93346.19;5091573;28;20518;-60
2023/08/29 01:41:00;;;;;;;15.68;10.60;;;;;;;10.75;100.00;93348.09;5092003;28;20055;-61
2023/08/29 01:43:27;;;;;;;15.35;10.60;;;;;;;10.95;100.00;93342.47;5077905;28;20443;-60
2023/08/29 01:45:54;;;;;;;15.88;10.60;;;;;;;11.02;100.00;93339.53;5091935;28;20101;-60
2023/08/29 01:48:21;;;;;;;18.67;10.17;;;;;;;11.10;100.00;93338.13;5091339;28;20058;-61
2023/08/29 01:50:48;;;;;;;14.20;10.05;;;;;;;11.15;100.00;93343.13;5078364;28;20407;-60
2023/08/29 01:53:15;;;;;;;14.68;10.27;;;;;;;11.15;100.00;93337.63;5073404;28;20206;-60
2023/08/29 01:55:44;;;;;;;14.23;9.63;;;;;;;11.11;100.00;93333.44;5091786;28;20043;-60
2023/08/29 01:58:12;;;;;;;14.18;10.32;;;;;;;11.12;100.00;93334.97;5091332;28;20040;-61
2023/08/29 02:00:39;;;;;;;15.07;9.80;;;;;;;10.82;100.00;93333.41;5091516;28;20047;-60
2023/08/29 02:03:07;;;;;;;14.00;9.23;;;;;;;10.92;100.00;93333.13;5091068;28;20044;-60
2023/08/29 02:05:33;;;;;;;16.83;11.55;;;;;;;10.75;100.00;93328.88;5091206;28;20032;-60
2023/08/29 02:08:00;;;;;;;16.85;11.13;;;;;;;10.70;100.00;93327.41;5091300;28;20046;-59
2023/08/29 02:10:27;;;;;;;16.50;11.23;;;;;;;10.85;100.00;93329.81;5090818;28;20040;-60
2023/08/29 02:12:53;;;;;;;17.23;11.60;;;;;;;10.69;100.00;93325.88;5091527;28;20032;-60
2023/08/29 02:15:20;;;;;;;17.45;10.70;;;;;;;10.79;100.00;93326.81;5077207;28;20052;-60
2023/08/29 02:17:47;;;;;;;16.98;11.10;;;;;;;10.88;100.00;93321.44;5091490;28;20044;-60
2023/08/29 02:20:14;;;;;;;16.45;11.20;;;;;;;10.85;100.00;93333.31;5054599;28;20045;-60
2023/08/29 02:22:40;;;;;;;19.02;11.93;;;;;;;10.75;100.00;93334.34;5068574;28;20044;-59
2023/08/29 02:25:07;;;;;;;22.50;12.80;;;;;;;10.75;100.00;93324.16;5064568;28;20049;-60
2023/08/29 02:27:34;;;;;;;18.10;12.35;;;;;;;10.83;100.00;93327.47;5052315;28;20535;-60
2023/08/29 02:30:04;;;;;;;17.95;11.30;;;;;;;10.86;100.00;93318.38;5063107;28;20044;-60
2023/08/29 02:32:34;;;;;;;20.90;12.70;;;;;;;10.54;100.00;93324.69;5070265;28;21346;-60
2023/08/29 02:35:03;;;;;;;19.52;12.63;;;;;;;10.61;100.00;93318.25;5070531;28;20432;-60
2023/08/29 02:37:31;;;;;;;18.03;11.57;;;;;;;10.64;100.00;93317.38;5059329;28;20098;-60
2023/08/29 02:39:57;;;;;;;19.58;12.13;;;;;;;10.64;100.00;93318.16;5069082;28;20444;-60
2023/08/29 02:42:24;;;;;;;19.83;12.70;;;;;;;10.48;100.00;93321.66;5070180;28;20058;-60
2023/08/29 02:44:51;;;;;;;20.35;12.73;;;;;;;10.50;100.00;93319.28;5070200;28;20644;-60
2023/08/29 02:47:18;;;;;;;19.52;12.98;;;;;;;10.68;100.00;93318.81;5061015;28;20054;-60
2023/08/29 02:49:45;;;;;;;17.57;11.43;;;;;;;10.81;100.00;93315.41;5063440;28;20032;-60
2023/08/29 02:52:11;;;;;;;16.98;11.50;;;;;;;10.85;100.00;93316.84;5069869;28;20211;-60
2023/08/29 02:54:38;;;;;;;17.70;11.85;;;;;;;10.92;100.00;93319.38;5070425;28;20041;-60
2023/08/29 02:57:05;;;;;;;16.05;11.23;;;;;;;10.88;100.00;93313.22;5070066;28;20097;-60
2023/08/29 02:59:32;;;;;;;17.83;10.90;;;;;;;10.95;100.00;93315.03;5062444;28;20739;-60
2023/08/29 03:02:00;;;;;;;15.93;11.20;;;;;;;10.93;100.00;93312.72;5064390;28;20056;-60
2023/08/29 03:04:27;;;;;;;14.57;10.10;;;;;;;10.94;100.00;93316.97;5070056;28;20374;-59
2023/08/29 03:06:54;;;;;;;15.32;9.68;;;;;;;10.86;100.00;93309.38;5057377;28;20106;-60
2023/08/29 03:09:21;;;;;;;16.35;11.60;;;;;;;10.84;100.00;93312.53;5069294;28;20044;-60
2023/08/29 03:11:48;;;;;;;17.92;12.05;;;;;;;10.62;100.00;93311.56;5067387;28;20047;-60
2023/08/29 03:14:15;;;;;;;17.67;11.20;;;;;;;10.77;100.00;93312.75;5065248;28;20076;-60
2023/08/29 03:16:42;;;;;;;16.70;11.15;;;;;;;10.79;100.00;93315.81;5060934;28;20055;-60
2023/08/29 03:19:09;;;;;;;16.88;11.23;;;;;;;10.70;100.00;93310.94;5069886;28;20032;-60
2023/08/29 03:21:35;;;;;;;17.33;10.98;;;;;;;10.69;100.00;93314.13;5084597;28;20036;-60
2023/08/29 03:24:02;;;;;;;17.20;10.82;;;;;;;10.75;100.00;93310.41;5086790;28;20407;-61
2023/08/29 03:26:29;;;;;;;16.40;9.73;;;;;;;10.88;100.00;93309.72;5089521;28;20697;-60
2023/08/29 03:28:56;;;;;;;17.70;10.27;;;;;;;10.82;100.00;93305.94;5087381;28;20032;-60
2023/08/29 03:31:23;;;;;;;15.15;9.70;;;;;;;10.70;100.00;93310.94;5087043;28;20040;-60
2023/08/29 03:33:49;;;;;;;16.58;10.73;;;;;;;10.76;100.00;93308.44;5080300;28;20388;-60
2023/08/29 03:36:16;;;;;;;15.43;10.40;;;;;;;10.80;100.00;93306.38;5085449;28;20048;-60
2023/08/29 03:38:43;;;;;;;15.23;9.87;;;;;;;10.82;100.00;93297.72;5089638;28;20046;-60
2023/08/29 03:41:10;;;;;;;15.60;10.32;;;;;;;10.75;100.00;93299.44;5089065;28;20028;-60
2023/08/29 03:43:37;;;;;;;17.77;9.90;;;;;;;10.79;100.00;93297.38;5079504;28;20041;-61
2023/08/29 03:46:05;;;;;;;14.48;9.85;;;;;;;10.84;100.00;93287.84;5085917;28;20048;-59
2023/08/29 03:48:34;;;;;;;15.57;10.00;;;;;;;10.76;100.00;93292.75;5088792;28;20700;-59
2023/08/29 03:51:05;;;;;;;14.13;8.93;;;;;;;10.72;100.00;93302.28;5089515;28;20040;-60
2023/08/29 03:53:34;;;;;;;13.85;9.70;;;;;;;10.82;100.00;93297.72;5088666;28;20820;-60
2023/08/29 03:56:02;;;;;;;13.98;9.48;;;;;;;10.84;100.00;93304.31;5089400;28;20040;-60
2023/08/29 03:58:30;;;;;;;13.43;9.48;;;;;;;10.86;100.00;93304.66;5089348;28;20100;-60
2023/08/29 04:00:57;;;;;;;14.48;9.93;;;;;;;10.78;100.00;93303.28;5075750;28;20044;-60
2023/08/29 04:03:25;;;;;;;13.90;9.77;;;;;;;10.79;100.00;93302.88;5088953;28;20496;-60
2023/08/29 04:05:52;;;;;;;14.40;9.57;;;;;;;10.77;100.00;93304.50;5089411;28;20044;-59
2023/08/29 04:08:19;;;;;;;16.10;10.20;;;;;;;10.76;100.00;93306.47;5088594;28;20036;-60
2023/08/29 04:10:46;;;;;;;14.50;9.50;;;;;;;10.87;100.00;93302.69;5082588;28;20040;-60
2023/08/29 04:13:13;;;;;;;14.77;10.20;;;;;;;10.88;100.00;93299.50;5088690;28;20058;-61
2023/08/29 04:15:40;;;;;;;15.87;10.40;;;;;;;10.88;100.00;93299.50;5089291;28;20038;-61
2023/08/29 04:18:11;;;;;;;15.98;10.70;;;;;;;10.73;100.00;93293.63;5088516;28;20052;-61
2023/08/29 04:20:37;;;;;;;18.08;12.05;;;;;;;10.62;100.00;93297.84;5088219;28;20648;-60
2023/08/29 04:23:06;;;;;;;18.90;12.38;;;;;;;10.44;100.00;93307.28;5089142;28;20464;-60
2023/08/29 04:25:35;;;;;;;19.30;11.93;;;;;;;10.55;100.00;93307.78;5087944;28;20836;-60
2023/08/29 04:28:03;;;;;;;23.13;13.73;;;;;;;10.62;100.00;93312.31;5088720;28;20046;-60
2023/08/29 04:30:30;;;;;;;22.48;13.80;;;;;;;10.56;100.00;93316.78;5081817;28;20036;-60
2023/08/29 04:32:59;;;;;;;21.88;12.98;;;;;;;10.54;100.00;93310.97;5085059;28;20408;-60
2023/08/29 04:35:26;;;;;;;21.92;13.63;;;;;;;10.62;100.00;93312.31;5061851;28;20048;-60
2023/08/29 04:37:54;;;;;;;21.67;12.90;;;;;;;10.70;100.00;93313.69;5088680;28;20055;-60
2023/08/29 04:40:21;;;;;;;20.20;13.60;;;;;;;10.82;100.00;93306.72;5088237;28;20048;-59
2023/08/29 04:42:50;;;;;;;19.75;12.93;;;;;;;10.76;100.00;93313.94;5088840;28;20040;-60
2023/08/29 04:45:18;;;;;;;22.40;14.23;;;;;;;10.82;100.00;93308.69;5088146;28;20062;-60
2023/08/29 04:47:44;;;;;;;20.27;13.23;;;;;;;10.90;100.00;93310.81;5088240;28;20032;-60
2023/08/29 04:50:11;;;;;;;23.30;13.88;;;;;;;10.81;100.00;93320.91;5088239;28;20040;-60
2023/08/29 04:52:38;;;;;;;20.07;13.33;;;;;;;10.77;100.00;93321.75;5088608;28;20081;-60
2023/08/29 04:55:05;;;;;;;20.00;12.82;;;;;;;10.88;100.00;93315.19;5088479;28;20507;-59
2023/08/29 04:57:33;;;;;;;22.70;13.63;;;;;;;10.91;100.00;93314.34;5088886;28;20258;-59
2023/08/29 05:00:00;;;;;;;19.10;12.65;;;;;;;10.89;100.00;93314.00;5092855;28;20044;-61
2023/08/29 05:02:27;;;;;;;18.13;12.32;;;;;;;10.72;100.00;93310.50;5073872;28;20048;-60
2023/08/29 05:04:53;;;;;;;17.60;12.13;;;;;;;10.82;100.00;93308.69;5090751;28;20044;-60
2023/08/29 05:07:20;;;;;;;21.23;12.95;;;;;;;10.85;100.00;93305.09;5091606;28;20052;-60
2023/08/29 05:09:47;;;;;;;17.85;11.57;;;;;;;10.96;100.00;93306.34;5080006;28;20412;-59
2023/08/29 05:12:15;;;;;;;20.35;12.50;;;;;;;10.93;100.00;93312.72;5091286;28;20044;-60
2023/08/29 05:14:42;;;;;;;18.83;12.27;;;;;;;10.96;100.00;93316.56;5092565;28;20043;-60
2023/08/29 05:17:10;;;;;;;19.43;12.00;;;;;;;10.96;100.00;93314.56;5091575;28;20063;-60
2023/08/29 05:19:37;;;;;;;18.40;11.90;;;;;;;10.94;100.00;93318.97;5091909;28;20032;-61
2023/08/29 05:22:04;;;;;;;19.05;12.27;;;;;;;10.90;100.00;93319.03;5092435;28;20058;-60
2023/08/29 05:24:31;;;;;;;19.00;12.80;;;;;;;10.95;100.00;93326.00;5091876;28;20040;-60
2023/08/29 05:26:58;;;;;;;26.85;15.57;;;;;;;10.82;100.00;93325.16;5091539;28;20520;-61
2023/08/29 05:29:25;;;;;;;26.83;15.70;;;;;;;10.83;100.00;93329.47;5073807;28;20506;-61
2023/08/29 05:31:51;;;;;;;32.60;18.52;;;;;;;10.81;100.00;93329.88;5092288;28;20043;-59
2023/08/29 05:34:18;;;;;;;28.75;16.45;;;;;;;10.91;100.00;93331.59;5091341;28;20048;-60
2023/08/29 05:36:47;;;;;;;25.42;15.32;;;;;;;10.95;100.00;93334.25;5086505;28;20083;-60
2023/08/29 05:39:14;;;;;;;22.08;13.65;;;;;;;10.99;100.00;93329.44;5083938;28;20404;-60
2023/08/29 05:41:40;;;;;;;20.07;13.10;;;;;;;10.93;100.00;93340.16;5085531;28;20042;-60
2023/08/29 05:44:07;;;;;;;18.65;12.05;;;;;;;10.96;100.00;93333.78;5071148;28;20117;-59
2023/08/29 05:46:34;;;;;;;17.80;11.88;;;;;;;10.96;100.00;93325.56;5089932;28;20054;-61
2023/08/29 05:49:01;;;;;;;18.00;11.90;;;;;;;10.78;100.00;93326.03;5091342;28;20051;-60
2023/08/29 05:51:27;;;;;;;19.52;13.07;;;;;;;10.52;100.00;93327.88;5059661;28;20044;-60
2023/08/29 05:53:54;;;;;;;21.10;12.90;;;;;;;10.37;100.00;93334.88;5091966;28;20046;-60
2023/08/29 05:56:21;;;;;;;23.50;14.45;;;;;;;10.37;100.00;93337.63;5088696;28;20048;-60
2023/08/29 05:58:47;;;;;;;20.58;13.20;;;;;;;10.61;100.00;93338.22;5080153;28;20062;-60
2023/08/29 06:01:14;;;;;;;23.38;14.30;;;;;;;10.67;100.00;93347.47;5088853;28;20044;-60
2023/08/29 06:03:42;;;;;;;20.83;13.27;;;;;;;10.81;100.00;93348.34;5091717;28;20533;-60
2023/08/29 06:06:09;;;;;;;19.57;12.40;;;;;;;10.97;100.00;93346.34;5091034;28;20075;-60
2023/08/29 06:08:36;;;;;;;14.57;9.38;;;;;;;11.00;100.00;93339.19;5059719;28;20050;-60
2023/08/29 06:11:03;;;;;;;8.95;5.78;;;;;;;11.00;100.00;93345.44;5091271;28;20062;-60
2023/08/29 06:13:30;;;;;;;6.53;4.28;;;;;;;10.92;100.00;93340.59;5090838;28;20123;-60
2023/08/29 06:15:57;;;;;;;6.07;3.72;;;;;;;11.06;100.00;93331.97;5090958;28;20040;-61
2023/08/29 06:18:24;;;;;;;4.23;2.70;;;;;;;11.06;100.00;93333.94;5090911;28;20104;-60
2023/08/29 06:20:51;;;;;;;4.43;2.67;;;;;;;11.01;100.00;93335.25;5090720;28;20104;-60
2023/08/29 06:23:18;;;;;;;4.97;2.63;;;;;;;11.18;100.00;93344.97;5076917;28;20443;-61
2023/08/29 06:25:45;;;;;;;4.72;2.80;;;;;;;11.28;100.00;93340.41;5090684;28;20036;-60
2023/08/29 06:28:11;;;;;;;4.85;3.08;;;;;;;11.43;100.00;93345.50;5090666;28;20052;-61
2023/08/29 06:30:38;;;;;;;3.80;2.40;;;;;;;11.48;100.00;93350.47;5091327;28;20048;-60
2023/08/29 06:33:09;;;;;;;3.78;2.35;;;;;;;11.52;100.00;93351.91;5063141;28;20049;-60
2023/08/29 06:35:38;;;;;;;5.18;3.58;;;;;;;11.62;100.00;93349.31;5054722;28;20619;-60
2023/08/29 06:38:05;;;;;;;5.00;2.85;;;;;;;11.73;100.00;93355.25;5084086;28;20113;-60
2023/08/29 06:40:33;;;;;;;4.25;2.60;;;;;;;11.75;100.00;93344.59;5089894;28;20403;-60
2023/08/29 06:42:59;;;;;;;3.50;2.00;;;;;;;11.72;100.00;93350.97;5090528;28;20036;-60
2023/08/29 06:45:26;;;;;;;3.80;2.20;;;;;;;11.59;100.00;93348.97;5085545;28;20074;-60
2023/08/29 06:47:53;;;;;;;4.93;2.30;;;;;;;11.64;100.00;93358.66;5081756;28;20069;-61
2023/08/29 06:50:20;;;;;;;3.58;1.90;;;;;;;11.74;100.00;93359.56;5089631;28;20446;-60
2023/08/29 06:52:47;;;;;;;4.00;2.17;;;;;;;11.93;100.00;93357.84;5090611;28;20048;-60
2023/08/29 06:55:14;;;;;;;4.27;2.50;;;;;;;11.84;100.00;93358.47;5089828;28;20488;-60
2023/08/29 06:57:40;;;;;;;5.47;2.20;;;;;;;12.00;100.00;93349.41;5090487;28;20044;-60
2023/08/29 07:00:10;;;;;;;5.10;3.00;;;;;;;11.91;100.00;93352.81;5075488;28;20048;-60
2023/08/29 07:02:37;;;;;;;4.50;2.97;;;;;;;11.43;100.00;93346.31;5089500;28;20054;-60
2023/08/29 07:05:05;;;;;;;4.70;2.97;;;;;;;11.25;100.00;93343.25;5090590;28;20040;-61
2023/08/29 07:07:32;;;;;;;5.93;2.93;;;;;;;11.45;100.00;93349.38;5079387;28;20037;-60
2023/08/29 07:09:59;;;;;;;4.80;3.25;;;;;;;11.53;100.00;93356.22;5087468;28;20052;-60
2023/08/29 07:12:26;;;;;;;5.75;3.25;;;;;;;11.42;100.00;93360.47;5089238;28;20048;-60
2023/08/29 07:14:52;;;;;;;4.80;3.33;;;;;;;11.69;100.00;93360.09;5090353;28;20032;-60
2023/08/29 07:17:19;;;;;;;4.25;2.80;;;;;;;11.82;100.00;93360.91;5075837;28;20040;-60
2023/08/29 07:19:46;;;;;;;4.33;2.80;;;;;;;11.59;100.00;93362.72;5071728;28;20066;-61
2023/08/29 07:22:12;;;;;;;4.28;2.80;;;;;;;11.68;100.00;93359.31;5088885;28;20071;-60
2023/08/29 07:24:43;;;;;;;5.10;3.20;;;;;;;11.90;100.00;93350.50;5089755;28;20040;-60
2023/08/29 07:27:11;;;;;;;3.92;2.90;;;;;;;11.42;100.00;93366.72;5089711;28;20040;-60
2023/08/29 07:29:37;;;;;;;4.70;3.20;;;;;;;11.64;100.00;93357.91;5089223;28;20035;-60
2023/08/29 07:32:05;;;;;;;4.43;2.87;;;;;;;11.85;100.00;93362.00;5089938;28;20050;-60
2023/08/29 07:34:31;;;;;;;4.72;3.25;;;;;;;12.23;100.00;93361.31;5088428;28;21515;-61
2023/08/29 07:36:58;;;;;;;4.32;2.90;;;;;;;12.49;100.00;93370.31;5089885;28;20396;-60
2023/08/29 07:39:25;;;;;;;4.70;3.15;;;;;;;12.59;100.00;93366.47;5077854;28;20523;-60
2023/08/29 07:41:52;;;;;;;4.35;3.03;;;;;;;12.50;100.00;93369.88;5087614;28;20488;-61
2023/08/29 07:44:19;;;;;;;5.53;3.00;;;;;;;12.12;100.00;93362.41;5089192;28;20044;-60
2023/08/29 07:46:45;;;;;;;4.85;3.22;;;;;;;11.97;100.00;93372.28;5089174;28;20036;-61
2023/08/29 07:49:29;;;;;;;5.65;3.47;;;;;;;12.07;100.00;93375.91;5088812;28;20092;-60
2023/08/29 07:51:56;;;;;;;7.20;4.50;;;;;;;12.05;100.00;93370.84;5085120;28;20050;-61
2023/08/29 07:54:22;;;;;;;5.70;4.10;;;;;;;12.23;100.00;93375.06;5079797;28;20074;-60
2023/08/29 07:56:49;;;;;;;6.73;4.43;;;;;;;12.43;100.00;93366.59;5089296;28;20052;-61
2023/08/29 07:59:16;;;;;;;6.80;4.60;;;;;;;12.03;100.00;93372.50;5070853;28;20050;-60
2023/08/29 08:01:42;;;;;;;7.07;4.38;;;;;;;12.23;100.00;93377.81;5087480;28;20042;-60
2023/08/29 08:04:09;;;;;;;8.07;4.60;;;;;;;12.30;100.00;93383.09;5088645;28;20505;-60
2023/08/29 08:06:36;;;;;;;7.13;4.97;;;;;;;12.45;100.00;93377.91;5082801;28;20416;-60
2023/08/29 08:09:04;;;;;;;6.57;4.70;;;;;;;12.14;100.00;93378.47;5080565;28;20046;-60
2023/08/29 08:11:31;;;;;;;6.00;4.20;;;;;;;11.96;100.00;93379.00;5088705;28;20036;-60
2023/08/29 08:13:58;;;;;;;6.60;4.70;;;;;;;11.94;100.00;93387.66;5088783;28;20497;-60
2023/08/29 08:16:24;;;;;;;6.75;4.90;;;;;;;11.92;100.00;93381.06;5088502;28;20056;-60
2023/08/29 08:18:51;;;;;;;8.48;5.50;;;;;;;11.93;100.00;93382.59;5088088;28;20106;-60
2023/08/29 08:21:20;;;;;;;10.77;6.83;;;;;;;12.08;100.00;93382.97;5088295;28;20040;-60
2023/08/29 08:23:48;;;;;;;8.15;6.00;;;;;;;11.84;100.00;93390.72;5088283;28;20043;-60
2023/08/29 08:26:15;;;;;;;9.73;6.95;;;;;;;11.51;100.00;93393.56;5076103;28;20048;-61
2023/08/29 08:28:43;;;;;;;13.07;8.15;;;;;;;11.29;100.00;93394.16;5073946;28;20041;-60
2023/08/29 08:31:10;;;;;;;12.57;8.68;;;;;;;11.36;100.00;93385.72;5077049;28;20108;-60
2023/08/29 08:33:37;;;;;;;14.27;9.10;;;;;;;11.64;100.00;93388.13;5088320;28;20485;-61
2023/08/29 08:36:04;;;;;;;15.63;9.68;;;;;;;11.76;100.00;93395.63;5089005;28;20052;-60
2023/08/29 08:38:31;;;;;;;14.98;9.57;;;;;;;11.85;100.00;93395.78;5088327;28;20165;-60
2023/08/29 08:40:58;;;;;;;15.50;10.18;;;;;;;11.48;100.00;93395.22;5086783;28;20058;-60
2023/08/29 08:43:27;;;;;;;15.10;9.93;;;;;;;11.74;100.00;93404.31;5068503;28;20048;-61
2023/08/29 08:45:56;;;;;;;15.63;10.20;;;;;;;11.84;100.00;93398.97;5084587;28;20048;-60
2023/08/29 08:48:24;;;;;;;16.33;9.90;;;;;;;11.82;100.00;93396.63;5070259;28;20048;-60
2023/08/29 08:50:51;;;;;;;14.23;9.48;;;;;;;11.87;100.00;93398.06;5088603;28;20403;-60
2023/08/29 08:53:21;;;;;;;13.90;9.02;;;;;;;11.91;100.00;93405.06;5088361;28;20040;-60
2023/08/29 08:55:51;;;;;;;14.23;9.52;;;;;;;12.07;100.00;93403.41;5088704;28;20067;-60
2023/08/29 08:58:18;;;;;;;14.50;9.60;;;;;;;11.84;100.00;93399.72;5088294;28;20487;-60
2023/08/29 09:00:46;;;;;;;13.15;9.15;;;;;;;11.95;100.00;93408.47;5088608;28;20036;-61
2023/08/29 09:03:13;;;;;;;13.70;9.13;;;;;;;11.89;100.00;93407.47;5088341;28;20437;-63
2023/08/29 09:05:43;;;;;;;13.77;9.27;;;;;;;12.09;100.00;93406.50;5087862;28;20357;-60
2023/08/29 09:08:10;;;;;;;17.40;11.13;;;;;;;11.99;100.00;93405.59;5088039;28;20048;-60
2023/08/29 09:10:40;;;;;;;20.37;12.53;;;;;;;11.93;100.00;93401.84;5086582;28;20036;-61
2023/08/29 09:13:15;;;;;;;17.73;11.70;;;;;;;11.93;100.00;93404.59;5088005;28;20431;-60
2023/08/29 09:15:42;;;;;;;16.33;11.30;;;;;;;12.38;100.00;93395.44;5080781;28;20051;-60
2023/08/29 09:18:13;;;;;;;17.45;11.40;;;;;;;12.55;100.00;93401.59;5053256;28;20093;-61
2023/08/29 09:20:45;;;;;;;16.30;10.50;;;;;;;12.80;100.00;93398.06;5081593;28;20051;-61
2023/08/29 09:23:26;;;;;;;14.87;9.30;;;;;;;12.70;100.00;93397.19;5088185;28;20050;-60
2023/08/29 09:25:58;;;;;;;13.20;8.77;;;;;;;13.06;100.00;93396.03;5074926;28;20044;-61
2023/08/29 09:28:29;;;;;;;14.77;9.25;;;;;;;13.01;100.00;93398.56;5056572;28;20040;-61
2023/08/29 09:31:05;;;;;;;13.40;9.13;;;;;;;13.22;100.00;93399.84;5068354;28;20041;-61
2023/08/29 09:33:33;;;;;;;12.85;9.45;;;;;;;13.11;100.00;93402.94;5074671;28;20215;-60
2023/08/29 09:36:01;;;;;;;13.53;9.57;;;;;;;12.65;100.00;93403.22;5087926;28;20044;-61
2023/08/29 09:38:32;;;;;;;15.40;10.93;;;;;;;12.55;100.00;93404.34;5087682;28;20048;-60
2023/08/29 09:40:59;;;;;;;18.45;11.18;;;;;;;12.44;100.00;93423.19;5088384;28;20087;-61
2023/08/29 09:43:28;;;;;;;18.60;11.80;;;;;;;12.50;100.00;93421.41;5088011;28;20048;-60
2023/08/29 09:45:56;;;;;;;20.70;12.25;;;;;;;12.52;100.00;93416.25;5091643;28;20050;-60
2023/08/29 09:48:23;;;;;;;14.67;9.83;;;;;;;12.94;100.00;93419.63;5088419;28;20048;-61
2023/08/29 09:50:51;;;;;;;13.10;9.43;;;;;;;13.53;100.00;93414.53;5081087;28;20044;-60
2023/08/29 09:53:19;;;;;;;9.02;6.25;;;;;;;13.74;100.00;93415.78;5091299;28;20056;-60
2023/08/29 09:55:49;;;;;;;8.57;6.47;;;;;;;14.06;100.00;93402.81;5091701;28;20044;-61
2023/08/29 09:58:17;;;;;;;7.95;5.70;;;;;;;14.55;100.00;93401.38;5090896;28;20511;-61
2023/08/29 10:00:45;;;;;;;6.83;5.13;;;;;;;15.07;100.00;93408.03;5091417;28;20077;-61
2023/08/29 10:03:12;;;;;;;7.38;5.28;;;;;;;15.46;100.00;93400.09;5077941;28;20485;-61
2023/08/29 10:05:41;;;;;;;8.07;5.43;;;;;;;15.70;100.00;93400.25;5091577;28;20561;-60
2023/08/29 10:08:10;;;;;;;7.88;6.10;;;;;;;14.84;100.00;93409.34;5091265;28;20048;-61
2023/08/29 10:10:48;;;;;;;9.60;7.00;;;;;;;14.14;100.00;93408.84;5089171;28;20457;-60
2023/08/29 10:13:17;;;;;;;8.43;6.40;;;;;;;13.91;100.00;93405.31;5077805;28;20050;-61
2023/08/29 10:15:44;;;;;;;7.70;5.60;;;;;;;14.58;100.00;93406.03;5083621;28;20040;-61
2023/08/29 10:18:11;;;;;;;7.30;4.97;;;;;;;15.01;100.00;93406.31;5085253;28;20054;-62
2023/08/29 10:20:43;;;;;;;6.63;4.50;;;;;;;15.13;100.00;93400.69;5090573;28;20058;-61
2023/08/29 10:23:11;;;;;;;8.93;5.50;;;;;;;14.66;100.00;93398.22;5065991;28;20741;-61
2023/08/29 10:25:39;;;;;;;6.50;4.70;;;;;;;14.59;100.00;93393.75;5083755;28;20044;-61
2023/08/29 10:28:11;;;;;;;6.63;5.05;;;;;;;14.38;100.00;93409.13;5090679;28;20044;-62
2023/08/29 10:30:47;;;;;;;6.47;4.20;;;;;;;14.37;100.00;93411.13;5090007;28;21392;-60
2023/08/29 10:33:15;;;;;;;6.93;4.63;;;;;;;14.15;100.00;93411.16;5090482;28;20035;-61
2023/08/29 10:35:42;;;;;;;7.25;5.40;;;;;;;13.93;100.00;93416.69;5090896;28;20044;-61
2023/08/29 10:38:14;;;;;;;6.83;5.30;;;;;;;13.73;100.00;93422.50;5076821;28;20079;-60
2023/08/29 10:40:42;;;;;;;10.85;7.75;;;;;;;13.66;100.00;93431.06;5090922;28;20120;-60
2023/08/29 10:43:22;;;;;;;10.35;7.13;;;;;;;13.50;100.00;93433.94;5090366;28;20050;-60
2023/08/29 10:45:54;;;;;;;8.95;6.55;;;;;;;13.56;100.00;93427.44;5090759;28;20042;-60
2023/08/29 10:48:44;;;;;;;9.35;6.18;;;;;;;13.48;100.00;93423.41;5090100;28;20134;-61
2023/08/29 10:51:15;;;;;;;8.70;6.53;;;;;;;13.36;100.00;93421.41;5090249;28;20054;-61
2023/08/29 10:53:53;;;;;;;10.85;7.35;;;;;;;13.17;100.00;93425.97;5090735;28;20387;-60
2023/08/29 10:56:24;;;;;;;9.82;6.63;;;;;;;13.07;100.00;93424.34;5077821;28;20115;-60
2023/08/29 10:58:54;;;;;;;10.40;7.07;;;;;;;13.02;100.00;93430.41;5077415;28;20039;-60
2023/08/29 11:01:26;;;;;;;9.60;7.07;;;;;;;13.12;100.00;93415.50;5089276;28;20422;-60
2023/08/29 11:03:55;;;;;;;10.20;7.00;;;;;;;13.26;100.00;93417.81;5090327;28;20036;-60
2023/08/29 11:06:25;;;;;;;9.85;6.82;;;;;;;13.59;100.00;93414.75;5089423;28;20040;-60
2023/08/29 11:09:24;;;;;;;10.00;6.68;;;;;;;13.78;100.00;93410.13;5090072;28;20048;-60
2023/08/29 11:12:08;;;;;;;11.32;7.90;;;;;;;13.62;100.00;93404.81;5089514;28;21545;-60
2023/08/29 11:14:57;;;;;;;10.38;7.53;;;;;;;13.48;100.00;93404.09;5057861;28;20640;-60
2023/08/29 11:17:25;;;;;;;9.90;7.40;;;;;;;13.40;100.00;93408.31;5089508;28;20054;-61
2023/08/29 11:20:01;;;;;;;10.93;7.50;;;;;;;13.00;100.00;93408.81;5081959;28;20040;-60